sensor_id;sensor_type;location;lat;lon;timestamp;temperature;humidity
6110;DHT22;3085;49.444;11.054;2022-10-16T00:00:46;15.90;99.90
6110;DHT22;3085;49.444;11.054;2022-10-16T00:03:12;15.90;99.90
6110;DHT22;3085;49.444;11.054;2022-10-16T00:05:41;15.90;99.90
6110;DHT22;3085;49.444;11.054;2022-10-16T00:08:11;15.90;99.90
6110;DHT22;3085;49.444;11.054;2022-10-16T00:10:39;15.90;99.90
6110;DHT22;3085;49.444;11.054;2022-10-16T00:13:07;15.90;99.90
6110;DHT22;3085;49.444;11.054;2022-10-16T00:15:34;15.90;99.90
6110;DHT22;3085;49.444;11.054;2022-10-16T00:18:03;15.90;99.90
6110;DHT22;3085;49.444;11.054;2022-10-16T00:20:30;15.90;99.90
6110;DHT22;3085;49.444;11.054;2022-10-16T00:22:59;16.00;99.90
6110;DHT22;3085;49.444;11.054;2022-10-16T00:25:27;15.90;99.90
6110;DHT22;3085;49.444;11.054;2022-10-16T00:27:54;15.90;99.90
6110;DHT22;3085;49.444;11.054;2022-10-16T00:30:21;16.00;99.90
6110;DHT22;3085;49.444;11.054;2022-10-16T00:32:48;16.00;99.90
6110;DHT22;3085;49.444;11.054;2022-10-16T00:35:15;16.00;99.90
6110;DHT22;3085;49.444;11.054;2022-10-16T00:37:42;16.00;99.90
6110;DHT22;3085;49.444;11.054;2022-10-16T00:40:10;16.00;99.90
6110;DHT22;3085;49.444;11.054;2022-10-16T00:42:38;16.00;99.90
6110;DHT22;3085;49.444;11.054;2022-10-16T00:45:07;16.00;99.90
6110;DHT22;3085;49.444;11.054;2022-10-16T00:47:37;16.00;99.90
6110;DHT22;3085;49.444;11.054;2022-10-16T00:50:09;16.10;99.90
6110;DHT22;3085;49.444;11.054;2022-10-16T00:52:40;16.00;99.90
6110;DHT22;3085;49.444;11.054;2022-10-16T00:55:08;16.00;99.90
6110;DHT22;3085;49.444;11.054;2022-10-16T00:57:37;16.00;99.90
6110;DHT22;3085;49.444;11.054;2022-10-16T01:00:08;15.90;99.90
6110;DHT22;3085;49.444;11.054;2022-10-16T01:02:35;15.90;99.90
6110;DHT22;3085;49.444;11.054;2022-10-16T01:05:03;15.90;99.90
6110;DHT22;3085;49.444;11.054;2022-10-16T01:07:39;15.80;99.90
6110;DHT22;3085;49.444;11.054;2022-10-16T01:10:14;15.80;99.90
6110;DHT22;3085;49.444;11.054;2022-10-16T01:12:48;15.90;99.90
6110;DHT22;3085;49.444;11.054;2022-10-16T01:15:22;16.00;99.90
6110;DHT22;3085;49.444;11.054;2022-10-16T01:17:56;15.90;99.90
6110;DHT22;3085;49.444;11.054;2022-10-16T01:20:27;15.90;99.90
6110;DHT22;3085;49.444;11.054;2022-10-16T01:23:10;15.90;99.90
6110;DHT22;3085;49.444;11.054;2022-10-16T01:25:59;15.90;99.90
6110;DHT22;3085;49.444;11.054;2022-10-16T01:28:36;15.80;99.90
6110;DHT22;3085;49.444;11.054;2022-10-16T01:31:05;15.50;99.90
6110;DHT22;3085;49.444;11.054;2022-10-16T01:33:35;15.80;99.90
6110;DHT22;3085;49.444;11.054;2022-10-16T01:36:09;15.80;99.90
6110;DHT22;3085;49.444;11.054;2022-10-16T01:38:38;15.80;99.90
6110;DHT22;3085;49.444;11.054;2022-10-16T01:41:09;15.80;99.90
6110;DHT22;3085;49.444;11.054;2022-10-16T01:43:40;15.80;99.90
6110;DHT22;3085;49.444;11.054;2022-10-16T01:46:09;15.80;99.90
6110;DHT22;3085;49.444;11.054;2022-10-16T01:48:37;15.70;99.90
6110;DHT22;3085;49.444;11.054;2022-10-16T01:51:06;15.80;99.90
6110;DHT22;3085;49.444;11.054;2022-10-16T01:53:35;16.30;99.90
6110;DHT22;3085;49.444;11.054;2022-10-16T01:56:04;15.80;99.90
6110;DHT22;3085;49.444;11.054;2022-10-16T01:58:37;15.80;99.90
6110;DHT22;3085;49.444;11.054;2022-10-16T02:01:07;15.80;99.90
6110;DHT22;3085;49.444;11.054;2022-10-16T02:03:35;15.80;99.90
6110;DHT22;3085;49.444;11.054;2022-10-16T02:06:03;15.80;99.90
6110;DHT22;3085;49.444;11.054;2022-10-16T02:08:31;15.70;99.90
6110;DHT22;3085;49.444;11.054;2022-10-16T02:10:59;15.80;99.90
6110;DHT22;3085;49.444;11.054;2022-10-16T02:13:31;15.80;99.90
6110;DHT22;3085;49.444;11.054;2022-10-16T02:16:01;15.70;99.90
6110;DHT22;3085;49.444;11.054;2022-10-16T02:18:28;15.70;99.90
6110;DHT22;3085;49.444;11.054;2022-10-16T02:20:59;15.70;99.90
6110;DHT22;3085;49.444;11.054;2022-10-16T02:23:33;15.70;99.90
6110;DHT22;3085;49.444;11.054;2022-10-16T02:26:03;16.10;99.90
6110;DHT22;3085;49.444;11.054;2022-10-16T02:28:34;15.80;99.90
6110;DHT22;3085;49.444;11.054;2022-10-16T02:31:07;15.80;99.90
6110;DHT22;3085;49.444;11.054;2022-10-16T02:33:37;15.70;99.90
6110;DHT22;3085;49.444;11.054;2022-10-16T02:36:04;15.80;99.90
6110;DHT22;3085;49.444;11.054;2022-10-16T02:38:32;15.80;99.90
6110;DHT22;3085;49.444;11.054;2022-10-16T02:40:59;15.80;99.90
6110;DHT22;3085;49.444;11.054;2022-10-16T02:43:26;15.80;99.90
6110;DHT22;3085;49.444;11.054;2022-10-16T02:45:53;15.80;99.90
6110;DHT22;3085;49.444;11.054;2022-10-16T02:48:21;15.80;99.90
6110;DHT22;3085;49.444;11.054;2022-10-16T02:50:48;15.80;99.90
6110;DHT22;3085;49.444;11.054;2022-10-16T02:53:15;15.80;99.90
6110;DHT22;3085;49.444;11.054;2022-10-16T02:55:41;15.80;99.90
6110;DHT22;3085;49.444;11.054;2022-10-16T02:58:08;15.70;99.90
6110;DHT22;3085;49.444;11.054;2022-10-16T03:00:35;15.80;99.90
6110;DHT22;3085;49.444;11.054;2022-10-16T03:03:02;15.80;99.90
6110;DHT22;3085;49.444;11.054;2022-10-16T03:05:30;15.80;99.90
6110;DHT22;3085;49.444;11.054;2022-10-16T03:07:57;15.80;99.90
6110;DHT22;3085;49.444;11.054;2022-10-16T03:10:25;15.80;99.90
6110;DHT22;3085;49.444;11.054;2022-10-16T03:12:52;15.80;99.90
6110;DHT22;3085;49.444;11.054;2022-10-16T03:15:19;15.80;99.90
6110;DHT22;3085;49.444;11.054;2022-10-16T03:17:46;15.80;99.90
6110;DHT22;3085;49.444;11.054;2022-10-16T03:20:13;15.80;99.90
6110;DHT22;3085;49.444;11.054;2022-10-16T03:22:41;15.80;99.90
6110;DHT22;3085;49.444;11.054;2022-10-16T03:25:08;15.80;99.90
6110;DHT22;3085;49.444;11.054;2022-10-16T03:27:35;15.80;99.90
6110;DHT22;3085;49.444;11.054;2022-10-16T03:30:02;15.80;99.90
6110;DHT22;3085;49.444;11.054;2022-10-16T03:32:29;15.80;99.90
6110;DHT22;3085;49.444;11.054;2022-10-16T03:34:56;15.60;99.90
6110;DHT22;3085;49.444;11.054;2022-10-16T03:37:23;15.70;99.90
6110;DHT22;3085;49.444;11.054;2022-10-16T03:39:51;15.80;99.90
6110;DHT22;3085;49.444;11.054;2022-10-16T03:42:18;15.30;99.90
6110;DHT22;3085;49.444;11.054;2022-10-16T03:44:45;15.80;99.90
6110;DHT22;3085;49.444;11.054;2022-10-16T03:47:12;15.70;99.90
6110;DHT22;3085;49.444;11.054;2022-10-16T03:49:39;15.70;99.90
6110;DHT22;3085;49.444;11.054;2022-10-16T03:52:06;15.70;99.90
6110;DHT22;3085;49.444;11.054;2022-10-16T03:54:33;15.60;99.90
6110;DHT22;3085;49.444;11.054;2022-10-16T03:57:01;15.70;99.90
6110;DHT22;3085;49.444;11.054;2022-10-16T03:59:28;15.70;99.90
6110;DHT22;3085;49.444;11.054;2022-10-16T04:01:54;15.70;99.90
6110;DHT22;3085;49.444;11.054;2022-10-16T04:04:21;15.70;99.90
6110;DHT22;3085;49.444;11.054;2022-10-16T04:06:48;15.70;99.90
6110;DHT22;3085;49.444;11.054;2022-10-16T04:09:15;15.70;99.90
6110;DHT22;3085;49.444;11.054;2022-10-16T04:11:42;15.60;99.90
6110;DHT22;3085;49.444;11.054;2022-10-16T04:14:10;15.70;99.90
6110;DHT22;3085;49.444;11.054;2022-10-16T04:16:37;15.70;99.90
6110;DHT22;3085;49.444;11.054;2022-10-16T04:19:03;16.10;99.90
6110;DHT22;3085;49.444;11.054;2022-10-16T04:21:30;15.60;99.90
6110;DHT22;3085;49.444;11.054;2022-10-16T04:23:57;15.60;99.90
6110;DHT22;3085;49.444;11.054;2022-10-16T04:26:24;16.30;99.90
6110;DHT22;3085;49.444;11.054;2022-10-16T04:28:51;15.60;99.90
6110;DHT22;3085;49.444;11.054;2022-10-16T04:31:20;15.70;99.90
6110;DHT22;3085;49.444;11.054;2022-10-16T04:33:49;15.70;99.90
6110;DHT22;3085;49.444;11.054;2022-10-16T04:36:23;15.60;99.90
6110;DHT22;3085;49.444;11.054;2022-10-16T04:38:51;15.20;99.90
6110;DHT22;3085;49.444;11.054;2022-10-16T04:41:18;15.70;99.90
6110;DHT22;3085;49.444;11.054;2022-10-16T04:43:45;15.60;99.90
6110;DHT22;3085;49.444;11.054;2022-10-16T04:46:12;15.70;99.90
6110;DHT22;3085;49.444;11.054;2022-10-16T04:48:40;15.60;99.90
6110;DHT22;3085;49.444;11.054;2022-10-16T04:51:07;15.60;99.90
6110;DHT22;3085;49.444;11.054;2022-10-16T04:53:34;15.60;99.90
6110;DHT22;3085;49.444;11.054;2022-10-16T04:56:00;15.60;99.90
6110;DHT22;3085;49.444;11.054;2022-10-16T04:58:27;15.60;99.90
6110;DHT22;3085;49.444;11.054;2022-10-16T05:00:54;15.60;99.90
6110;DHT22;3085;49.444;11.054;2022-10-16T05:03:21;15.60;99.90
6110;DHT22;3085;49.444;11.054;2022-10-16T05:05:49;15.60;99.90
6110;DHT22;3085;49.444;11.054;2022-10-16T05:08:16;16.00;99.90
6110;DHT22;3085;49.444;11.054;2022-10-16T05:10:44;15.50;99.90
6110;DHT22;3085;49.444;11.054;2022-10-16T05:13:12;15.60;99.90
6110;DHT22;3085;49.444;11.054;2022-10-16T05:15:41;15.60;99.90
6110;DHT22;3085;49.444;11.054;2022-10-16T05:18:08;15.60;99.90
6110;DHT22;3085;49.444;11.054;2022-10-16T05:20:35;15.60;99.90
6110;DHT22;3085;49.444;11.054;2022-10-16T05:23:03;15.60;99.90
6110;DHT22;3085;49.444;11.054;2022-10-16T05:25:30;15.60;99.90
6110;DHT22;3085;49.444;11.054;2022-10-16T05:27:57;15.60;99.90
6110;DHT22;3085;49.444;11.054;2022-10-16T05:30:24;15.60;99.90
6110;DHT22;3085;49.444;11.054;2022-10-16T05:32:51;15.60;99.90
6110;DHT22;3085;49.444;11.054;2022-10-16T05:35:23;15.50;99.90
6110;DHT22;3085;49.444;11.054;2022-10-16T05:37:50;15.50;99.90
6110;DHT22;3085;49.444;11.054;2022-10-16T05:40:18;15.50;99.90
6110;DHT22;3085;49.444;11.054;2022-10-16T05:42:45;15.50;99.90
6110;DHT22;3085;49.444;11.054;2022-10-16T05:45:12;15.50;99.90
6110;DHT22;3085;49.444;11.054;2022-10-16T05:47:39;15.50;99.90
6110;DHT22;3085;49.444;11.054;2022-10-16T05:50:06;15.50;99.90
6110;DHT22;3085;49.444;11.054;2022-10-16T05:52:33;15.50;99.90
6110;DHT22;3085;49.444;11.054;2022-10-16T05:55:00;15.60;99.90
6110;DHT22;3085;49.444;11.054;2022-10-16T05:57:28;15.40;99.90
6110;DHT22;3085;49.444;11.054;2022-10-16T05:59:55;15.40;99.90
6110;DHT22;3085;49.444;11.054;2022-10-16T06:02:22;15.40;99.90
6110;DHT22;3085;49.444;11.054;2022-10-16T06:04:50;15.40;99.90
6110;DHT22;3085;49.444;11.054;2022-10-16T06:07:19;15.40;99.90
6110;DHT22;3085;49.444;11.054;2022-10-16T06:09:48;15.50;99.90
6110;DHT22;3085;49.444;11.054;2022-10-16T06:12:15;15.10;99.90
6110;DHT22;3085;49.444;11.054;2022-10-16T06:14:44;15.50;99.90
6110;DHT22;3085;49.444;11.054;2022-10-16T06:17:12;15.50;99.90
6110;DHT22;3085;49.444;11.054;2022-10-16T06:19:39;15.50;99.90
6110;DHT22;3085;49.444;11.054;2022-10-16T06:22:06;15.70;99.90
6110;DHT22;3085;49.444;11.054;2022-10-16T06:24:33;15.50;99.90
6110;DHT22;3085;49.444;11.054;2022-10-16T06:27:00;15.60;99.90
6110;DHT22;3085;49.444;11.054;2022-10-16T06:29:27;15.50;99.90
6110;DHT22;3085;49.444;11.054;2022-10-16T06:31:55;15.60;99.90
6110;DHT22;3085;49.444;11.054;2022-10-16T06:34:23;15.60;99.90
6110;DHT22;3085;49.444;11.054;2022-10-16T06:36:50;15.60;99.90
6110;DHT22;3085;49.444;11.054;2022-10-16T06:39:17;15.70;99.90
6110;DHT22;3085;49.444;11.054;2022-10-16T06:41:43;15.80;99.90
6110;DHT22;3085;49.444;11.054;2022-10-16T06:44:10;15.70;99.90
6110;DHT22;3085;49.444;11.054;2022-10-16T06:46:37;15.80;99.90
6110;DHT22;3085;49.444;11.054;2022-10-16T06:49:05;15.80;99.90
6110;DHT22;3085;49.444;11.054;2022-10-16T06:51:32;15.80;99.90
6110;DHT22;3085;49.444;11.054;2022-10-16T06:54:00;15.80;99.90
6110;DHT22;3085;49.444;11.054;2022-10-16T06:56:28;15.80;99.90
6110;DHT22;3085;49.444;11.054;2022-10-16T06:58:55;15.80;99.90
6110;DHT22;3085;49.444;11.054;2022-10-16T07:01:24;15.90;99.90
6110;DHT22;3085;49.444;11.054;2022-10-16T07:03:51;15.80;99.90
6110;DHT22;3085;49.444;11.054;2022-10-16T07:06:21;15.80;99.90
6110;DHT22;3085;49.444;11.054;2022-10-16T07:08:49;15.80;99.90
6110;DHT22;3085;49.444;11.054;2022-10-16T07:11:17;15.90;99.90
6110;DHT22;3085;49.444;11.054;2022-10-16T07:13:45;15.80;99.90
6110;DHT22;3085;49.444;11.054;2022-10-16T07:16:14;15.80;99.90
6110;DHT22;3085;49.444;11.054;2022-10-16T07:18:42;15.90;99.90
6110;DHT22;3085;49.444;11.054;2022-10-16T07:21:12;15.90;99.90
6110;DHT22;3085;49.444;11.054;2022-10-16T07:23:41;15.90;99.90
6110;DHT22;3085;49.444;11.054;2022-10-16T07:26:09;15.90;99.90
6110;DHT22;3085;49.444;11.054;2022-10-16T07:28:37;15.90;99.90
6110;DHT22;3085;49.444;11.054;2022-10-16T07:31:06;15.90;99.90
6110;DHT22;3085;49.444;11.054;2022-10-16T07:33:34;15.90;99.90
6110;DHT22;3085;49.444;11.054;2022-10-16T07:36:01;15.90;99.90
6110;DHT22;3085;49.444;11.054;2022-10-16T07:38:28;15.90;99.90
6110;DHT22;3085;49.444;11.054;2022-10-16T07:41:00;15.90;99.90
6110;DHT22;3085;49.444;11.054;2022-10-16T07:43:28;16.00;99.90
6110;DHT22;3085;49.444;11.054;2022-10-16T07:45:55;16.00;99.90
6110;DHT22;3085;49.444;11.054;2022-10-16T07:48:23;15.90;99.90
6110;DHT22;3085;49.444;11.054;2022-10-16T07:50:51;16.00;99.90
6110;DHT22;3085;49.444;11.054;2022-10-16T07:53:19;16.00;99.90
6110;DHT22;3085;49.444;11.054;2022-10-16T07:55:45;16.00;99.90
6110;DHT22;3085;49.444;11.054;2022-10-16T07:58:13;16.10;99.90
6110;DHT22;3085;49.444;11.054;2022-10-16T08:00:42;16.10;99.90
6110;DHT22;3085;49.444;11.054;2022-10-16T08:03:09;16.10;99.90
6110;DHT22;3085;49.444;11.054;2022-10-16T08:05:36;16.10;99.90
6110;DHT22;3085;49.444;11.054;2022-10-16T08:08:03;16.20;99.90
6110;DHT22;3085;49.444;11.054;2022-10-16T08:10:32;16.20;99.90
6110;DHT22;3085;49.444;11.054;2022-10-16T08:12:59;16.20;99.90
6110;DHT22;3085;49.444;11.054;2022-10-16T08:15:27;16.30;99.90
6110;DHT22;3085;49.444;11.054;2022-10-16T08:17:55;16.20;99.90
6110;DHT22;3085;49.444;11.054;2022-10-16T08:20:22;16.30;99.90
6110;DHT22;3085;49.444;11.054;2022-10-16T08:22:49;16.30;99.90
6110;DHT22;3085;49.444;11.054;2022-10-16T08:25:15;16.30;99.90
6110;DHT22;3085;49.444;11.054;2022-10-16T08:27:42;16.30;99.90
6110;DHT22;3085;49.444;11.054;2022-10-16T08:30:11;16.30;99.90
6110;DHT22;3085;49.444;11.054;2022-10-16T08:32:39;16.40;99.90
6110;DHT22;3085;49.444;11.054;2022-10-16T08:35:07;16.50;99.90
6110;DHT22;3085;49.444;11.054;2022-10-16T08:37:34;16.40;99.90
6110;DHT22;3085;49.444;11.054;2022-10-16T08:40:01;16.50;99.90
6110;DHT22;3085;49.444;11.054;2022-10-16T08:42:40;16.50;99.90
6110;DHT22;3085;49.444;11.054;2022-10-16T08:45:26;16.60;99.90
6110;DHT22;3085;49.444;11.054;2022-10-16T08:48:08;16.60;99.90
6110;DHT22;3085;49.444;11.054;2022-10-16T08:50:39;16.60;99.90
6110;DHT22;3085;49.444;11.054;2022-10-16T08:53:14;16.70;99.90
6110;DHT22;3085;49.444;11.054;2022-10-16T08:55:43;16.80;99.90
6110;DHT22;3085;49.444;11.054;2022-10-16T08:58:15;16.80;99.90
6110;DHT22;3085;49.444;11.054;2022-10-16T09:00:45;16.70;99.90
6110;DHT22;3085;49.444;11.054;2022-10-16T09:03:22;16.80;99.90
6110;DHT22;3085;49.444;11.054;2022-10-16T09:06:17;16.90;99.90
6110;DHT22;3085;49.444;11.054;2022-10-16T09:08:59;17.00;99.90
6110;DHT22;3085;49.444;11.054;2022-10-16T09:11:38;17.00;99.90
6110;DHT22;3085;49.444;11.054;2022-10-16T09:14:31;17.00;99.90
6110;DHT22;3085;49.444;11.054;2022-10-16T09:17:12;17.20;99.90
6110;DHT22;3085;49.444;11.054;2022-10-16T09:19:48;17.20;99.90
6110;DHT22;3085;49.444;11.054;2022-10-16T09:22:18;17.30;99.90
6110;DHT22;3085;49.444;11.054;2022-10-16T09:24:48;17.40;99.90
6110;DHT22;3085;49.444;11.054;2022-10-16T09:27:15;17.40;99.90
6110;DHT22;3085;49.444;11.054;2022-10-16T09:29:42;17.40;99.90
6110;DHT22;3085;49.444;11.054;2022-10-16T09:32:12;17.50;99.90
6110;DHT22;3085;49.444;11.054;2022-10-16T09:34:45;17.50;99.90
6110;DHT22;3085;49.444;11.054;2022-10-16T09:37:18;17.50;99.90
6110;DHT22;3085;49.444;11.054;2022-10-16T09:39:45;17.50;99.90
6110;DHT22;3085;49.444;11.054;2022-10-16T09:42:15;17.40;99.90
6110;DHT22;3085;49.444;11.054;2022-10-16T09:44:47;17.40;99.90
6110;DHT22;3085;49.444;11.054;2022-10-16T09:47:17;17.40;99.90
6110;DHT22;3085;49.444;11.054;2022-10-16T09:49:54;17.40;99.90
6110;DHT22;3085;49.444;11.054;2022-10-16T09:52:23;17.40;99.90
6110;DHT22;3085;49.444;11.054;2022-10-16T09:54:52;17.40;99.90
6110;DHT22;3085;49.444;11.054;2022-10-16T09:57:20;17.40;99.90
6110;DHT22;3085;49.444;11.054;2022-10-16T09:59:48;17.30;99.90
6110;DHT22;3085;49.444;11.054;2022-10-16T10:02:16;17.30;99.90
6110;DHT22;3085;49.444;11.054;2022-10-16T10:04:48;17.40;99.90
6110;DHT22;3085;49.444;11.054;2022-10-16T10:07:25;17.40;99.90
6110;DHT22;3085;49.444;11.054;2022-10-16T10:09:53;17.50;99.90
6110;DHT22;3085;49.444;11.054;2022-10-16T10:12:23;17.50;99.90
6110;DHT22;3085;49.444;11.054;2022-10-16T10:14:51;17.60;99.90
6110;DHT22;3085;49.444;11.054;2022-10-16T10:17:20;17.70;99.90
6110;DHT22;3085;49.444;11.054;2022-10-16T10:19:51;17.70;99.90
6110;DHT22;3085;49.444;11.054;2022-10-16T10:22:40;17.80;99.90
6110;DHT22;3085;49.444;11.054;2022-10-16T10:28:24;17.90;99.90
6110;DHT22;3085;49.444;11.054;2022-10-16T10:31:02;18.00;99.90
6110;DHT22;3085;49.444;11.054;2022-10-16T10:33:38;18.10;99.90
6110;DHT22;3085;49.444;11.054;2022-10-16T10:36:16;18.10;99.90
6110;DHT22;3085;49.444;11.054;2022-10-16T10:38:50;18.50;99.90
6110;DHT22;3085;49.444;11.054;2022-10-16T10:41:34;18.20;99.90
6110;DHT22;3085;49.444;11.054;2022-10-16T10:44:13;18.30;99.90
6110;DHT22;3085;49.444;11.054;2022-10-16T10:46:44;18.30;99.90
6110;DHT22;3085;49.444;11.054;2022-10-16T10:49:24;18.40;99.90
6110;DHT22;3085;49.444;11.054;2022-10-16T10:52:02;18.40;99.90
6110;DHT22;3085;49.444;11.054;2022-10-16T10:54:40;18.60;99.90
6110;DHT22;3085;49.444;11.054;2022-10-16T10:57:23;18.60;99.90
6110;DHT22;3085;49.444;11.054;2022-10-16T11:00:04;18.60;99.90
6110;DHT22;3085;49.444;11.054;2022-10-16T11:02:38;18.70;99.90
6110;DHT22;3085;49.444;11.054;2022-10-16T11:05:23;18.70;99.90
6110;DHT22;3085;49.444;11.054;2022-10-16T11:07:57;18.80;99.90
6110;DHT22;3085;49.444;11.054;2022-10-16T11:10:30;18.80;99.90
6110;DHT22;3085;49.444;11.054;2022-10-16T11:13:02;18.80;99.90
6110;DHT22;3085;49.444;11.054;2022-10-16T11:15:36;18.80;99.90
6110;DHT22;3085;49.444;11.054;2022-10-16T11:18:07;18.90;99.90
6110;DHT22;3085;49.444;11.054;2022-10-16T11:20:39;18.90;99.90
6110;DHT22;3085;49.444;11.054;2022-10-16T11:23:14;18.90;99.90
6110;DHT22;3085;49.444;11.054;2022-10-16T11:25:43;19.00;99.90
6110;DHT22;3085;49.444;11.054;2022-10-16T11:28:13;19.10;99.90
6110;DHT22;3085;49.444;11.054;2022-10-16T11:30:44;19.10;99.90
6110;DHT22;3085;49.444;11.054;2022-10-16T11:33:28;19.20;99.90
6110;DHT22;3085;49.444;11.054;2022-10-16T11:36:01;19.20;99.90
6110;DHT22;3085;49.444;11.054;2022-10-16T11:38:33;19.20;99.90
6110;DHT22;3085;49.444;11.054;2022-10-16T11:41:11;19.30;99.90
6110;DHT22;3085;49.444;11.054;2022-10-16T11:43:44;19.30;99.90
6110;DHT22;3085;49.444;11.054;2022-10-16T11:46:17;19.30;99.90
6110;DHT22;3085;49.444;11.054;2022-10-16T11:48:49;19.40;99.90
6110;DHT22;3085;49.444;11.054;2022-10-16T11:51:21;19.40;99.90
6110;DHT22;3085;49.444;11.054;2022-10-16T11:53:57;19.60;99.90
6110;DHT22;3085;49.444;11.054;2022-10-16T11:56:27;19.60;99.90
6110;DHT22;3085;49.444;11.054;2022-10-16T11:58:58;19.80;99.90
6110;DHT22;3085;49.444;11.054;2022-10-16T12:01:32;19.80;99.90
6110;DHT22;3085;49.444;11.054;2022-10-16T12:04:06;19.90;99.90
6110;DHT22;3085;49.444;11.054;2022-10-16T12:06:42;19.90;99.90
6110;DHT22;3085;49.444;11.054;2022-10-16T12:09:19;19.90;99.90
6110;DHT22;3085;49.444;11.054;2022-10-16T12:11:49;20.00;99.90
6110;DHT22;3085;49.444;11.054;2022-10-16T12:14:32;20.00;99.90
6110;DHT22;3085;49.444;11.054;2022-10-16T12:17:02;20.10;99.90
6110;DHT22;3085;49.444;11.054;2022-10-16T12:19:32;20.10;99.90
6110;DHT22;3085;49.444;11.054;2022-10-16T12:22:00;20.30;99.90
6110;DHT22;3085;49.444;11.054;2022-10-16T12:24:39;20.30;99.90
6110;DHT22;3085;49.444;11.054;2022-10-16T12:27:27;20.50;99.90
6110;DHT22;3085;49.444;11.054;2022-10-16T12:29:56;20.50;99.90
6110;DHT22;3085;49.444;11.054;2022-10-16T12:32:29;20.60;99.90
6110;DHT22;3085;49.444;11.054;2022-10-16T12:34:57;20.70;99.90
6110;DHT22;3085;49.444;11.054;2022-10-16T12:37:27;20.70;99.90
6110;DHT22;3085;49.444;11.054;2022-10-16T12:39:56;20.60;99.90
6110;DHT22;3085;49.444;11.054;2022-10-16T12:42:32;20.50;99.90
6110;DHT22;3085;49.444;11.054;2022-10-16T12:45:00;20.60;99.90
6110;DHT22;3085;49.444;11.054;2022-10-16T12:47:46;20.60;99.90
6110;DHT22;3085;49.444;11.054;2022-10-16T12:50:31;20.60;99.90
6110;DHT22;3085;49.444;11.054;2022-10-16T12:52:59;20.60;99.90
6110;DHT22;3085;49.444;11.054;2022-10-16T12:55:27;20.60;99.90
6110;DHT22;3085;49.444;11.054;2022-10-16T12:58:16;20.70;99.90
6110;DHT22;3085;49.444;11.054;2022-10-16T13:00:47;20.70;99.90
6110;DHT22;3085;49.444;11.054;2022-10-16T13:06:19;20.90;99.90
6110;DHT22;3085;49.444;11.054;2022-10-16T13:08:59;20.90;99.90
6110;DHT22;3085;49.444;11.054;2022-10-16T13:11:39;20.90;99.90
6110;DHT22;3085;49.444;11.054;2022-10-16T13:14:25;20.90;99.90
6110;DHT22;3085;49.444;11.054;2022-10-16T13:17:00;20.90;99.90
6110;DHT22;3085;49.444;11.054;2022-10-16T13:19:35;21.00;99.90
6110;DHT22;3085;49.444;11.054;2022-10-16T13:22:11;21.10;99.90
6110;DHT22;3085;49.444;11.054;2022-10-16T13:24:59;21.10;99.90
6110;DHT22;3085;49.444;11.054;2022-10-16T13:27:35;21.20;99.90
6110;DHT22;3085;49.444;11.054;2022-10-16T13:30:15;21.30;99.90
6110;DHT22;3085;49.444;11.054;2022-10-16T13:32:45;21.20;99.90
6110;DHT22;3085;49.444;11.054;2022-10-16T13:35:21;21.30;99.90
6110;DHT22;3085;49.444;11.054;2022-10-16T13:37:48;21.30;99.90
6110;DHT22;3085;49.444;11.054;2022-10-16T13:40:21;21.20;99.90
6110;DHT22;3085;49.444;11.054;2022-10-16T13:42:49;21.20;99.90
6110;DHT22;3085;49.444;11.054;2022-10-16T13:45:24;21.30;99.90
6110;DHT22;3085;49.444;11.054;2022-10-16T13:48:02;21.40;99.90
6110;DHT22;3085;49.444;11.054;2022-10-16T13:50:29;21.50;99.90
6110;DHT22;3085;49.444;11.054;2022-10-16T13:53:09;21.70;99.90
6110;DHT22;3085;49.444;11.054;2022-10-16T13:55:39;21.80;99.90
6110;DHT22;3085;49.444;11.054;2022-10-16T13:58:08;21.80;99.90
6110;DHT22;3085;49.444;11.054;2022-10-16T14:00:38;21.90;99.90
6110;DHT22;3085;49.444;11.054;2022-10-16T14:03:13;21.80;99.90
6110;DHT22;3085;49.444;11.054;2022-10-16T14:05:44;21.80;99.90
6110;DHT22;3085;49.444;11.054;2022-10-16T14:08:12;21.80;99.90
6110;DHT22;3085;49.444;11.054;2022-10-16T14:10:40;21.80;99.90
6110;DHT22;3085;49.444;11.054;2022-10-16T14:13:12;21.90;99.90
6110;DHT22;3085;49.444;11.054;2022-10-16T14:15:47;22.00;99.90
6110;DHT22;3085;49.444;11.054;2022-10-16T14:18:18;22.10;99.90
6110;DHT22;3085;49.444;11.054;2022-10-16T14:20:46;22.10;99.90
6110;DHT22;3085;49.444;11.054;2022-10-16T14:23:22;22.10;99.90
6110;DHT22;3085;49.444;11.054;2022-10-16T14:25:52;22.10;99.90
6110;DHT22;3085;49.444;11.054;2022-10-16T14:28:20;22.10;99.90
6110;DHT22;3085;49.444;11.054;2022-10-16T14:30:54;22.10;99.90
6110;DHT22;3085;49.444;11.054;2022-10-16T14:33:22;22.10;99.90
6110;DHT22;3085;49.444;11.054;2022-10-16T14:36:01;22.10;99.90
6110;DHT22;3085;49.444;11.054;2022-10-16T14:38:29;21.90;99.90
6110;DHT22;3085;49.444;11.054;2022-10-16T14:40:58;21.80;99.90
6110;DHT22;3085;49.444;11.054;2022-10-16T14:43:31;21.70;99.90
6110;DHT22;3085;49.444;11.054;2022-10-16T14:46:01;21.60;99.90
6110;DHT22;3085;49.444;11.054;2022-10-16T14:48:29;21.60;99.90
6110;DHT22;3085;49.444;11.054;2022-10-16T14:50:56;21.50;99.90
6110;DHT22;3085;49.444;11.054;2022-10-16T14:53:23;21.50;99.90
6110;DHT22;3085;49.444;11.054;2022-10-16T14:55:50;21.60;99.90
6110;DHT22;3085;49.444;11.054;2022-10-16T14:58:20;21.60;99.90
6110;DHT22;3085;49.444;11.054;2022-10-16T15:00:48;21.60;99.90
6110;DHT22;3085;49.444;11.054;2022-10-16T15:03:16;21.50;99.90
6110;DHT22;3085;49.444;11.054;2022-10-16T15:05:43;21.50;99.90
6110;DHT22;3085;49.444;11.054;2022-10-16T15:08:10;21.50;99.90
6110;DHT22;3085;49.444;11.054;2022-10-16T15:10:39;21.40;99.90
6110;DHT22;3085;49.444;11.054;2022-10-16T15:13:10;21.40;99.90
6110;DHT22;3085;49.444;11.054;2022-10-16T15:15:40;21.40;99.90
6110;DHT22;3085;49.444;11.054;2022-10-16T15:18:08;21.30;99.90
6110;DHT22;3085;49.444;11.054;2022-10-16T15:20:38;21.30;99.90
6110;DHT22;3085;49.444;11.054;2022-10-16T15:23:10;21.20;99.90
6110;DHT22;3085;49.444;11.054;2022-10-16T15:25:41;21.20;99.90
6110;DHT22;3085;49.444;11.054;2022-10-16T15:28:10;21.00;99.90
6110;DHT22;3085;49.444;11.054;2022-10-16T15:30:37;21.10;99.90
6110;DHT22;3085;49.444;11.054;2022-10-16T15:33:09;21.00;99.90
6110;DHT22;3085;49.444;11.054;2022-10-16T15:35:39;21.00;99.90
6110;DHT22;3085;49.444;11.054;2022-10-16T15:38:06;21.00;99.90
6110;DHT22;3085;49.444;11.054;2022-10-16T15:40:33;21.00;99.90
6110;DHT22;3085;49.444;11.054;2022-10-16T15:43:00;21.00;99.90
6110;DHT22;3085;49.444;11.054;2022-10-16T15:45:27;20.90;99.90
6110;DHT22;3085;49.444;11.054;2022-10-16T15:47:54;20.80;99.90
6110;DHT22;3085;49.444;11.054;2022-10-16T15:50:20;21.00;99.90
6110;DHT22;3085;49.444;11.054;2022-10-16T15:52:49;20.80;99.90
6110;DHT22;3085;49.444;11.054;2022-10-16T15:55:17;20.70;99.90
6110;DHT22;3085;49.444;11.054;2022-10-16T15:57:44;20.60;99.90
6110;DHT22;3085;49.444;11.054;2022-10-16T16:00:13;20.60;99.90
6110;DHT22;3085;49.444;11.054;2022-10-16T16:02:41;20.50;99.90
6110;DHT22;3085;49.444;11.054;2022-10-16T16:05:09;20.50;99.90
6110;DHT22;3085;49.444;11.054;2022-10-16T16:07:38;20.40;99.90
6110;DHT22;3085;49.444;11.054;2022-10-16T16:10:09;20.40;99.90